Time;durP1;ratioP1;P1;durP2;ratioP2;P2;SDS_P1;SDS_P2;PMS_P1;PMS_P2;Temp;Humidity;BMP_temperature;BMP_pressure;BME280_temperature;BME280_humidity;BME280_pressure;Samples;Min_cycle;Max_cycle;Signal;HPM_P1;HPM_P2
2022/11/21 00:02:29;;;;;;;59.53;26.07;;;;;;;-1.84;95.02;99634.27;3595909;81;31619;-80
2022/11/21 00:07:30;;;;;;;140.10;42.43;;;;;;;-1.87;95.50;99630.88;3588803;81;98747;-82
2022/11/21 00:12:31;;;;;;;74.40;26.53;;;;;;;-1.91;95.54;99627.20;3596595;81;31646;-83
2022/11/21 00:17:32;;;;;;;62.73;24.03;;;;;;;-1.95;95.71;99633.78;3560455;81;98924;-83
2022/11/21 00:22:33;;;;;;;67.47;27.70;;;;;;;-2.01;95.24;99636.94;3566824;81;32721;-83
2022/11/21 00:27:34;;;;;;;51.83;24.23;;;;;;;-2.04;95.70;99632.96;3630766;79;98568;-83
2022/11/21 00:32:35;;;;;;;53.97;21.57;;;;;;;-2.08;95.81;99632.56;3649970;80;29828;-83
2022/11/21 00:37:35;;;;;;;46.37;20.57;;;;;;;-2.11;95.63;99631.83;3641705;79;98464;-84
2022/11/21 00:42:36;;;;;;;49.30;19.63;;;;;;;-2.23;95.92;99613.58;3650946;79;26506;-83
2022/11/21 00:47:37;;;;;;;54.00;23.77;;;;;;;-2.19;95.92;99621.83;3641201;79;98507;-83
2022/11/21 00:52:38;;;;;;;58.20;24.77;;;;;;;-2.22;95.38;99624.59;3653923;79;36235;-83
2022/11/21 00:57:39;;;;;;;69.10;27.60;;;;;;;-2.28;95.41;99624.50;3642221;79;98532;-83
2022/11/21 01:02:40;;;;;;;55.50;25.70;;;;;;;-2.32;95.58;99636.19;3635016;79;35468;-83
2022/11/21 01:07:41;;;;;;;52.90;23.00;;;;;;;-2.36;95.45;99637.37;3638561;79;98616;-83
2022/11/21 01:12:43;;;;;;;57.83;23.37;;;;;;;-2.43;95.07;99634.87;3655099;79;34879;-83
2022/11/21 01:17:44;;;;;;;52.37;22.83;;;;;;;-2.49;96.00;99618.61;3645118;79;98517;-83
2022/11/21 01:22:44;;;;;;;54.80;23.63;;;;;;;-2.51;96.04;99625.65;3635794;79;35365;-83
2022/11/21 01:27:45;;;;;;;76.33;31.17;;;;;;;-2.52;96.16;99620.03;3641859;78;98473;-83
2022/11/21 01:32:49;;;;;;;76.63;29.93;;;;;;;-2.54;96.37;99616.86;3644979;79;34768;-83
2022/11/21 01:37:50;;;;;;;59.45;26.97;;;;;;;-2.54;96.44;99609.32;3647782;79;98527;-84
2022/11/21 01:43:05;;;;;;;55.63;26.63;;;;;;;-2.56;96.77;99611.00;3635286;79;35040;-84
2022/11/21 01:48:06;;;;;;;77.72;35.58;;;;;;;-2.56;96.77;99611.00;3647158;79;98337;-83
2022/11/21 01:53:07;;;;;;;84.10;34.60;;;;;;;-2.55;96.75;99620.66;3625110;79;98716;-83
2022/11/21 01:58:09;;;;;;;96.70;39.60;;;;;;;-2.54;96.88;99614.17;3655456;79;35061;-83
2022/11/21 02:03:15;;;;;;;68.87;30.47;;;;;;;-2.52;96.92;99603.87;3651529;79;98958;-83
2022/11/21 02:08:19;;;;;;;62.17;25.82;;;;;;;-2.51;97.04;99604.10;3646163;79;26238;-83
2022/11/21 02:13:21;;;;;;;60.10;26.27;;;;;;;-2.49;97.20;99594.37;3643462;79;98675;-83
2022/11/21 02:18:22;;;;;;;53.35;24.30;;;;;;;-2.47;97.07;99597.56;3636231;79;30744;-82
2022/11/21 02:23:46;;;;;;;53.73;23.47;;;;;;;-2.45;97.38;99604.77;3642351;79;98724;-83
2022/11/21 02:28:47;;;;;;;45.28;20.55;;;;;;;-2.42;97.39;99602.25;3614541;79;31538;-82
2022/11/21 02:33:48;;;;;;;49.27;21.37;;;;;;;-2.40;97.52;99599.25;3629004;79;98683;-82
2022/11/21 02:38:48;;;;;;;47.50;21.30;;;;;;;-2.37;97.59;99598.06;3634744;79;35556;-82
2022/11/21 02:43:57;;;;;;;58.20;24.13;;;;;;;-2.36;97.80;99583.48;3621599;79;98653;-81
2022/11/21 02:48:58;;;;;;;46.88;22.07;;;;;;;-2.32;97.87;99579.06;3620586;79;32113;-82
2022/11/21 02:53:59;;;;;;;53.57;24.20;;;;;;;-2.33;97.99;99575.33;3614069;79;98750;-82
2022/11/21 02:59:00;;;;;;;52.57;24.03;;;;;;;-2.32;98.04;99564.78;3614913;79;35859;-81
2022/11/21 03:04:00;;;;;;;46.90;20.20;;;;;;;-2.28;98.12;99551.74;3607864;79;99018;-82
2022/11/21 03:09:01;;;;;;;44.63;20.50;;;;;;;-2.25;98.25;99550.33;3618375;79;34882;-82
2022/11/21 03:14:02;;;;;;;41.93;19.40;;;;;;;-2.22;98.20;99559.11;3615627;79;99165;-82
2022/11/21 03:19:03;;;;;;;48.83;21.93;;;;;;;-2.19;98.28;99553.88;3621702;79;34893;-82
2022/11/21 03:24:05;;;;;;;47.55;21.02;;;;;;;-2.15;98.21;99550.81;3619845;79;98704;-82
2022/11/21 03:29:06;;;;;;;56.35;22.22;;;;;;;-2.11;98.25;99543.69;3629813;79;34793;-82
2022/11/21 03:34:07;;;;;;;47.43;20.50;;;;;;;-2.09;98.21;99537.41;3628712;79;98796;-82
2022/11/21 03:39:08;;;;;;;41.17;19.37;;;;;;;-2.05;98.27;99538.92;3625510;79;33102;-81
2022/11/21 03:44:11;;;;;;;48.38;22.85;;;;;;;-2.00;98.34;99538.23;3619428;79;98791;-82
2022/11/21 03:49:14;;;;;;;40.55;19.67;;;;;;;-1.98;98.26;99534.65;3634701;79;35299;-82
2022/11/21 03:54:15;;;;;;;80.25;48.45;;;;;;;-1.95;98.17;99529.98;3615205;79;98652;-82
2022/11/21 03:59:16;;;;;;;50.10;23.27;;;;;;;-1.94;98.25;99510.00;3628519;79;33097;-82
2022/11/21 04:04:17;;;;;;;43.10;21.67;;;;;;;-1.91;98.29;99508.58;3624819;79;98744;-81
2022/11/21 04:09:18;;;;;;;39.40;20.57;;;;;;;-1.90;98.22;99502.88;3628490;79;32395;-82
2022/11/21 04:14:19;;;;;;;38.33;18.90;;;;;;;-1.88;98.31;99501.99;3628236;79;98965;-81
2022/11/21 04:19:19;;;;;;;39.60;17.87;;;;;;;-1.87;98.33;99504.92;3625996;78;32493;-81
2022/11/21 04:24:20;;;;;;;46.27;19.97;;;;;;;-1.82;98.45;99500.72;3623195;79;98662;-82
2022/11/21 04:29:21;;;;;;;42.53;19.40;;;;;;;-1.75;98.41;99505.64;3626278;79;33034;-81
2022/11/21 04:34:22;;;;;;;43.83;18.92;;;;;;;-1.75;98.33;99482.14;3622367;79;99057;-81
2022/11/21 04:39:22;;;;;;;38.80;18.37;;;;;;;-1.74;98.37;99487.80;3632752;79;27462;-80
2022/11/21 04:44:24;;;;;;;49.80;26.40;;;;;;;-1.74;98.40;99477.02;3627985;79;98790;-81
2022/11/21 04:49:24;;;;;;;51.10;26.67;;;;;;;-1.71;98.44;99473.66;3629747;79;26360;-81
2022/11/21 04:54:25;;;;;;;61.80;29.37;;;;;;;-1.70;98.33;99475.81;3617538;79;98916;-80
2022/11/21 04:59:26;;;;;;;46.20;22.10;;;;;;;-1.68;98.39;99459.55;3633483;79;25933;-80
2022/11/21 05:04:27;;;;;;;50.43;23.00;;;;;;;-1.71;98.45;99456.70;3631704;79;98648;-80
2022/11/21 05:09:28;;;;;;;49.97;21.30;;;;;;;-1.69;98.55;99451.77;3629643;79;25816;-81
2022/11/21 05:14:28;;;;;;;50.50;23.73;;;;;;;-1.63;98.60;99441.05;3624689;79;98919;-81
2022/11/21 05:19:29;;;;;;;47.80;21.40;;;;;;;-1.59;98.40;99446.05;3629743;79;33955;-81
2022/11/21 05:24:30;;;;;;;51.37;24.37;;;;;;;-1.62;98.33;99438.03;3631436;79;98724;-81
2022/11/21 05:29:31;;;;;;;51.23;24.17;;;;;;;-1.59;98.46;99437.37;3525456;82;32967;-81
2022/11/21 05:34:31;;;;;;;46.63;23.17;;;;;;;-1.60;98.56;99439.84;3622374;79;99132;-81
2022/11/21 05:39:32;;;;;;;59.03;29.13;;;;;;;-1.59;98.53;99428.52;3617500;79;33414;-81
2022/11/21 05:44:33;;;;;;;74.00;36.40;;;;;;;-1.58;98.57;99428.74;3612993;80;98607;-80
2022/11/21 05:49:34;;;;;;;49.40;22.63;;;;;;;-1.58;98.60;99424.13;3621223;80;33622;-81
2022/11/21 05:54:34;;;;;;;44.70;22.03;;;;;;;-1.57;98.51;99418.18;3614977;80;98649;-81
2022/11/21 05:59:35;;;;;;;79.80;37.73;;;;;;;-1.58;98.63;99403.11;3629256;80;31641;-80
2022/11/21 06:04:36;;;;;;;55.03;24.30;;;;;;;-1.58;98.64;99407.94;3615879;79;98766;-78
2022/11/21 06:09:37;;;;;;;49.77;26.77;;;;;;;-1.54;98.71;99404.06;3630725;80;32221;-78
2022/11/21 06:14:37;;;;;;;54.10;24.83;;;;;;;-1.53;98.74;99400.25;3613908;80;98674;-78
2022/11/21 06:19:38;;;;;;;58.67;28.83;;;;;;;-1.57;98.74;99401.45;3629147;80;31676;-78
2022/11/21 06:24:39;;;;;;;49.43;22.73;;;;;;;-1.51;98.93;99404.75;3604616;80;99029;-77
2022/11/21 06:29:40;;;;;;;52.00;24.60;;;;;;;-1.50;98.81;99407.68;3602967;80;31811;-78
2022/11/21 06:34:40;;;;;;;57.67;29.70;;;;;;;-1.51;98.91;99400.70;3577547;80;98797;-78
2022/11/21 06:39:41;;;;;;;64.53;28.70;;;;;;;-1.49;98.91;99405.24;3576539;80;34900;-77
2022/11/21 06:44:42;;;;;;;65.00;30.07;;;;;;;-1.51;99.01;99395.31;3574638;80;98637;-78
2022/11/21 06:49:43;;;;;;;67.63;31.30;;;;;;;-1.50;99.13;99392.84;3584304;80;34851;-78
2022/11/21 06:54:43;;;;;;;91.60;36.95;;;;;;;-1.48;99.17;99404.13;3572920;81;98876;-78
2022/11/21 06:59:44;;;;;;;114.30;46.20;;;;;;;-1.44;99.22;99395.05;3593617;80;34837;-78
2022/11/21 07:04:45;;;;;;;77.00;32.33;;;;;;;-1.45;99.21;99396.17;3576342;80;98907;-78
2022/11/21 07:09:46;;;;;;;65.70;27.93;;;;;;;-1.42;99.16;99400.13;3581063;81;34838;-76
2022/11/21 07:14:47;;;;;;;64.87;32.57;;;;;;;-1.47;99.26;99398.41;3573427;81;98699;-78
2022/11/21 07:19:48;;;;;;;77.80;34.63;;;;;;;-1.48;99.40;99404.90;3583911;82;35338;-78
2022/11/21 07:24:49;;;;;;;97.40;38.67;;;;;;;-1.46;99.64;99401.34;3576397;81;98664;-78
2022/11/21 07:29:50;;;;;;;70.73;32.20;;;;;;;-1.46;99.30;99412.13;3621782;79;33138;-78
2022/11/21 07:34:51;;;;;;;92.70;39.07;;;;;;;-1.44;99.31;99410.44;3613951;79;98693;-79
2022/11/21 07:39:52;;;;;;;76.30;33.77;;;;;;;-1.46;99.41;99411.33;3629131;79;32537;-78
2022/11/21 07:44:53;;;;;;;62.80;28.50;;;;;;;-1.43;99.49;99405.30;3607107;79;98767;-79
2022/11/21 07:49:53;;;;;;;56.73;25.83;;;;;;;-1.40;99.53;99400.05;3617215;80;32485;-79
2022/11/21 07:54:54;;;;;;;57.03;24.53;;;;;;;-1.44;99.55;99396.40;3611672;80;99133;-78
2022/11/21 07:59:55;;;;;;;65.40;30.53;;;;;;;-1.45;99.75;99394.02;3623413;80;32463;-79
2022/11/21 08:04:56;;;;;;;54.23;25.48;;;;;;;-1.43;99.84;99391.81;3621855;80;99019;-79
2022/11/21 08:09:57;;;;;;;50.47;22.27;;;;;;;-1.39;100.00;99378.69;3629014;80;28220;-79
2022/11/21 08:14:57;;;;;;;54.23;23.77;;;;;;;-1.39;100.00;99381.39;3622751;79;98790;-79
2022/11/21 08:19:59;;;;;;;50.80;23.73;;;;;;;-1.38;100.00;99372.75;3622303;80;26272;-79
2022/11/21 08:25:00;;;;;;;54.00;25.43;;;;;;;-1.36;100.00;99374.55;3617396;80;99259;-79
2022/11/21 08:30:01;;;;;;;65.33;36.13;;;;;;;-1.36;100.00;99373.20;3623483;80;25807;-78
2022/11/21 08:35:02;;;;;;;59.00;27.30;;;;;;;-1.35;100.00;99382.88;3617556;79;99520;-79
2022/11/21 08:40:05;;;;;;;98.17;37.30;;;;;;;-1.32;100.00;99379.55;3611082;81;25967;-78
2022/11/21 08:45:07;;;;;;;52.40;25.43;;;;;;;-1.31;100.00;99382.47;3619576;81;99458;-79
2022/11/21 08:50:08;;;;;;;54.63;25.73;;;;;;;-1.32;100.00;99372.80;3618034;80;27633;-79
2022/11/21 08:55:09;;;;;;;52.87;24.07;;;;;;;-1.23;100.00;99386.48;3611334;79;99007;-78
2022/11/21 09:00:13;;;;;;;54.10;25.97;;;;;;;-1.19;100.00;99384.72;3617986;79;26362;-79
2022/11/21 09:05:14;;;;;;;53.95;26.37;;;;;;;-1.14;100.00;99379.14;3609604;80;99036;-79
2022/11/21 09:10:15;;;;;;;50.20;24.03;;;;;;;-1.08;100.00;99377.84;3622158;80;25987;-79
2022/11/21 09:20:41;;;;;;;52.30;25.05;;;;;;;-0.90;100.00;99385.26;3618873;80;31277;-79
2022/11/21 09:25:44;;;;;;;59.60;28.80;;;;;;;-0.85;100.00;99385.08;3614629;80;99004;-78
2022/11/21 09:30:45;;;;;;;54.03;28.87;;;;;;;-0.81;100.00;99382.77;3584683;80;29542;-78
2022/11/21 09:35:45;;;;;;;65.83;32.47;;;;;;;-0.79;100.00;99382.41;3575863;80;98704;-78
2022/11/21 09:40:47;;;;;;;59.57;30.83;;;;;;;-0.73;100.00;99390.01;3573999;82;25824;-78
2022/11/21 09:45:51;;;;;;;56.37;29.13;;;;;;;-0.67;100.00;99395.45;3574944;82;98865;-78
2022/11/21 09:51:00;;;;;;;64.80;29.37;;;;;;;-0.61;100.00;99386.61;3577235;81;27387;-76
2022/11/21 09:56:11;;;;;;;61.10;28.53;;;;;;;-0.62;100.00;99385.03;3584359;80;98979;-77
2022/11/21 10:01:13;;;;;;;62.77;30.73;;;;;;;-0.59;100.00;99374.90;3587457;80;27531;-77
2022/11/21 10:06:21;;;;;;;52.13;27.62;;;;;;;-0.53;100.00;99376.28;3577876;80;99017;-78
2022/11/21 10:17:46;;;;;;;58.73;27.65;;;;;;;-0.37;100.00;99365.11;3581659;80;98730;-78
2022/11/21 10:23:27;;;;;;;66.20;31.47;;;;;;;-0.35;100.00;99366.36;3601958;80;27413;-77
2022/11/21 10:28:59;;;;;;;59.77;33.07;;;;;;;-0.30;100.00;99367.52;3607443;80;28931;-77
2022/11/21 10:34:03;;;;;;;56.58;28.15;;;;;;;-0.27;100.00;99361.46;3610700;80;99039;-79
2022/11/21 10:39:21;;;;;;;53.83;25.40;;;;;;;-0.20;100.00;99363.06;3603776;80;33238;-78
2022/11/21 10:49:49;;;;;;;50.03;26.70;;;;;;;-0.09;100.00;99362.30;3603590;80;26728;-78
2022/11/21 10:55:07;;;;;;;56.53;26.30;;;;;;;0.00;100.00;99369.78;3598633;80;99016;-78
2022/11/21 11:00:16;;;;;;;54.87;28.50;;;;;;;0.11;100.00;99364.76;3603456;80;27705;-78
2022/11/21 11:05:25;;;;;;;51.80;26.95;;;;;;;0.14;100.00;99362.17;3600103;80;98511;-78
2022/11/21 11:10:27;;;;;;;56.42;28.32;;;;;;;0.18;100.00;99363.06;3601940;80;32637;-78
2022/11/21 11:15:27;;;;;;;59.40;30.43;;;;;;;0.21;100.00;99362.96;3601544;80;98839;-78
2022/11/21 11:20:41;;;;;;;55.03;27.67;;;;;;;0.32;100.00;99368.98;3626733;80;26129;-78
2022/11/21 11:25:57;;;;;;;56.77;28.62;;;;;;;0.42;100.00;99375.31;3597824;80;98796;-78
2022/11/21 11:30:59;;;;;;;58.23;29.13;;;;;;;0.53;100.00;99376.46;3622500;80;31149;-79
2022/11/21 11:36:32;;;;;;;63.00;30.53;;;;;;;0.62;100.00;99373.66;3625601;79;98588;-79
2022/11/21 11:47:57;;;;;;;60.90;29.82;;;;;;;0.62;100.00;99377.13;3638585;79;98401;-79
2022/11/21 11:53:20;;;;;;;63.52;29.60;;;;;;;0.66;100.00;99385.40;3645047;80;32006;-79
2022/11/21 11:58:38;;;;;;;63.43;30.67;;;;;;;0.65;100.00;99388.66;3643710;79;28338;-78
2022/11/21 12:03:48;;;;;;;65.60;31.80;;;;;;;0.70;100.00;99383.02;3631380;79;98569;-78
2022/11/21 12:09:14;;;;;;;61.97;29.47;;;;;;;0.75;100.00;99394.19;3639001;80;28997;-78
2022/11/21 12:20:18;;;;;;;71.90;32.53;;;;;;;0.76;100.00;99403.33;3635666;80;28761;-78
2022/11/21 12:25:24;;;;;;;63.33;30.90;;;;;;;0.78;100.00;99408.42;3633537;79;99006;-77
2022/11/21 12:30:55;;;;;;;69.37;34.08;;;;;;;0.79;100.00;99412.70;3638899;80;27611;-77
2022/11/21 12:36:23;;;;;;;67.27;32.90;;;;;;;0.75;100.00;99412.59;3632645;79;98909;-78
2022/11/21 12:58:43;;;;;;;89.07;46.60;;;;;;;0.78;100.00;99417.90;3588363;80;26076;-79
2022/11/21 13:04:04;;;;;;;118.13;60.83;;;;;;;0.78;100.00;99419.25;3629075;80;98850;-79
2022/11/21 13:09:10;;;;;;;134.27;68.57;;;;;;;0.74;100.00;99420.49;3640144;79;28674;-78
2022/11/21 13:14:35;;;;;;;81.85;40.83;;;;;;;0.73;100.00;99422.95;3631293;79;99072;-78
2022/11/21 13:19:59;;;;;;;70.90;34.20;;;;;;;0.72;100.00;99428.72;3653550;79;31908;-79
2022/11/21 13:25:13;;;;;;;61.73;29.00;;;;;;;0.74;100.00;99433.23;3640592;79;98470;-79
2022/11/21 13:30:17;;;;;;;70.17;32.30;;;;;;;0.76;100.00;99439.09;3643848;80;27413;-79
2022/11/21 13:35:24;;;;;;;66.47;31.70;;;;;;;0.77;100.00;99433.34;3636315;79;98514;-78
2022/11/21 13:40:38;;;;;;;67.00;32.48;;;;;;;0.80;100.00;99446.77;3647439;79;27581;-79
2022/11/21 13:45:44;;;;;;;67.82;31.35;;;;;;;0.80;100.00;99457.61;3636213;79;98512;-79
2022/11/21 13:51:02;;;;;;;62.55;29.67;;;;;;;0.81;100.00;99451.86;3646418;79;27530;-79
2022/11/21 13:56:48;;;;;;;66.02;34.60;;;;;;;0.82;100.00;99460.79;3641979;80;98435;-79
2022/11/21 14:02:06;;;;;;;66.73;32.83;;;;;;;0.81;100.00;99463.25;3652349;80;29944;-79
2022/11/21 14:07:30;;;;;;;66.50;32.67;;;;;;;0.80;100.00;99467.89;3633256;79;98467;-79
2022/11/21 14:12:38;;;;;;;74.53;36.55;;;;;;;0.79;100.00;99475.79;3647698;80;30680;-79
2022/11/21 14:17:49;;;;;;;71.17;33.28;;;;;;;0.79;100.00;99481.20;3631051;80;98487;-79
2022/11/21 14:23:16;;;;;;;72.82;33.10;;;;;;;0.77;100.00;99475.31;3639303;79;30636;-78
2022/11/21 14:28:26;;;;;;;70.87;33.95;;;;;;;0.73;100.00;99480.39;3645933;80;31270;-78
2022/11/21 14:33:31;;;;;;;76.60;34.45;;;;;;;0.73;100.00;99492.58;3631543;79;98976;-79
2022/11/21 14:38:55;;;;;;;78.97;36.28;;;;;;;0.70;100.00;99500.80;3645289;79;31208;-78
2022/11/21 14:44:02;;;;;;;78.00;40.20;;;;;;;0.68;100.00;99511.73;3637104;79;98621;-79
2022/11/21 14:49:19;;;;;;;78.20;38.83;;;;;;;0.68;100.00;99518.50;3639863;79;28822;-78
2022/11/21 14:54:28;;;;;;;79.22;36.38;;;;;;;0.68;100.00;99519.86;3636968;79;98908;-79
2022/11/21 14:59:42;;;;;;;84.00;40.37;;;;;;;0.68;100.00;99525.27;3649574;79;27387;-79
2022/11/21 15:04:46;;;;;;;85.80;39.47;;;;;;;0.65;100.00;99524.58;3629092;79;98496;-79
2022/11/21 15:09:48;;;;;;;83.50;39.77;;;;;;;0.62;100.00;99518.48;3642955;79;27761;-78
2022/11/21 15:15:14;;;;;;;85.50;41.15;;;;;;;0.61;100.00;99523.68;3631848;79;98367;-78
2022/11/21 15:20:18;;;;;;;75.03;37.30;;;;;;;0.58;99.92;99527.04;3635464;79;31201;-78
2022/11/21 15:25:24;;;;;;;87.82;42.38;;;;;;;0.54;99.93;99527.47;3636558;79;98653;-79
2022/11/21 15:30:30;;;;;;;88.73;38.60;;;;;;;0.56;99.78;99533.36;3641847;79;28232;-79
2022/11/21 15:35:50;;;;;;;87.47;39.57;;;;;;;0.55;99.81;99530.43;3623446;79;98455;-79
2022/11/21 15:41:13;;;;;;;90.07;41.50;;;;;;;0.54;99.80;99539.64;3630130;79;28979;-79
2022/11/21 15:46:20;;;;;;;85.32;39.30;;;;;;;0.54;99.69;99536.39;3623099;79;98407;-79
2022/11/21 15:51:35;;;;;;;83.27;40.17;;;;;;;0.55;99.65;99542.61;3624372;79;29702;-80
2022/11/21 15:56:36;;;;;;;88.33;42.75;;;;;;;0.55;99.67;99525.78;3609142;79;98545;-79
2022/11/21 16:01:37;;;;;;;99.27;43.10;;;;;;;0.52;99.51;99527.82;3627522;79;26169;-78
2022/11/21 16:06:38;;;;;;;98.17;45.58;;;;;;;0.52;99.57;99530.53;3617474;79;98610;-78
2022/11/21 16:11:50;;;;;;;89.90;44.53;;;;;;;0.52;99.50;99531.88;3626671;79;26158;-79
2022/11/21 16:16:51;;;;;;;85.63;41.27;;;;;;;0.53;99.52;99536.16;3620634;79;98167;-79
2022/11/21 16:21:55;;;;;;;88.37;41.30;;;;;;;0.54;99.42;99528.27;3627139;79;25783;-79
2022/11/21 16:26:55;;;;;;;98.87;43.58;;;;;;;0.51;99.47;99526.21;3613756;80;98354;-79
2022/11/21 16:31:57;;;;;;;87.20;42.87;;;;;;;0.48;99.53;99527.44;3641994;80;27512;-79
2022/11/21 16:36:58;;;;;;;90.07;40.93;;;;;;;0.47;99.64;99526.67;3630189;79;98553;-79
2022/11/21 16:42:04;;;;;;;97.35;46.68;;;;;;;0.49;99.61;99525.77;3640544;79;26124;-78
2022/11/21 16:47:05;;;;;;;71.30;32.38;;;;;;;0.49;99.51;99524.96;3640680;80;99365;-78
2022/11/21 16:52:05;;;;;;;99.73;44.73;;;;;;;0.46;99.38;99526.45;3651636;79;25854;-79
2022/11/21 16:57:06;;;;;;;89.10;40.77;;;;;;;0.47;99.51;99531.28;3645653;79;98199;-79
2022/11/21 17:02:09;;;;;;;83.00;39.53;;;;;;;0.47;99.56;99531.28;3645392;80;26274;-80
2022/11/21 17:07:10;;;;;;;87.17;38.83;;;;;;;0.48;99.38;99524.19;3630145;80;98397;-80
2022/11/21 17:12:10;;;;;;;89.10;40.00;;;;;;;0.47;99.29;99522.61;3635633;80;26193;-80
2022/11/21 17:17:11;;;;;;;93.70;41.97;;;;;;;0.50;99.29;99521.16;3635270;80;98291;-80
2022/11/21 17:22:12;;;;;;;98.77;45.13;;;;;;;0.50;99.11;99523.86;3635835;79;25848;-79
2022/11/21 17:27:13;;;;;;;92.53;43.40;;;;;;;0.50;99.18;99531.41;3636139;80;98085;-80
2022/11/21 17:32:14;;;;;;;83.60;39.03;;;;;;;0.50;99.12;99532.75;3632717;79;26356;-80
2022/11/21 17:37:15;;;;;;;80.83;39.27;;;;;;;0.51;99.24;99537.63;3625453;79;98182;-80
2022/11/21 17:42:16;;;;;;;88.13;40.90;;;;;;;0.51;99.16;99540.33;3630482;79;26039;-80
2022/11/21 17:47:17;;;;;;;90.77;43.67;;;;;;;0.52;99.07;99544.06;3620150;79;98164;-80
2022/11/21 17:52:18;;;;;;;78.67;37.42;;;;;;;0.51;98.87;99553.86;3629433;79;32926;-80
2022/11/21 17:57:18;;;;;;;79.23;37.00;;;;;;;0.45;98.83;99560.02;3616948;79;98201;-80
2022/11/21 18:02:21;;;;;;;78.87;35.00;;;;;;;0.39;98.88;99560.58;3627029;79;32945;-80
2022/11/21 18:07:21;;;;;;;75.83;36.60;;;;;;;0.40;98.95;99571.05;3632702;79;98182;-79
2022/11/21 18:12:22;;;;;;;67.43;30.97;;;;;;;0.37;99.10;99566.31;3627573;79;32969;-79
2022/11/21 18:17:23;;;;;;;62.90;26.23;;;;;;;0.34;99.06;99565.60;3631450;79;98185;-79
2022/11/21 18:22:24;;;;;;;64.47;29.23;;;;;;;0.37;98.73;99566.86;3628986;79;31803;-79
2022/11/21 18:27:26;;;;;;;43.93;20.23;;;;;;;0.30;98.77;99561.19;3615067;79;98458;-79
2022/11/21 18:32:28;;;;;;;39.47;17.17;;;;;;;0.30;98.95;99559.84;3629851;79;33802;-79
2022/11/21 18:37:29;;;;;;;51.63;21.63;;;;;;;0.28;98.46;99556.11;3633351;79;98114;-80
2022/11/21 18:42:31;;;;;;;41.43;20.63;;;;;;;0.24;98.56;99559.23;3625748;79;32985;-80
2022/11/21 18:47:32;;;;;;;28.67;12.77;;;;;;;0.22;98.50;99556.66;3618288;79;98329;-80
2022/11/21 18:52:33;;;;;;;22.43;9.73;;;;;;;0.21;98.55;99568.02;3620911;79;32883;-80
2022/11/21 18:57:34;;;;;;;24.57;10.13;;;;;;;0.18;98.07;99577.36;3616225;79;97927;-80
2022/11/21 19:02:35;;;;;;;28.73;13.23;;;;;;;0.20;97.91;99576.46;3638468;79;32915;-80
2022/11/21 19:07:36;;;;;;;37.03;16.30;;;;;;;0.23;98.21;99571.76;3624205;79;98111;-80
2022/11/21 19:12:36;;;;;;;37.50;17.47;;;;;;;0.17;97.57;99594.72;3636500;79;31538;-80
2022/11/21 19:17:37;;;;;;;33.60;14.57;;;;;;;0.16;97.60;99603.39;3624735;79;98191;-80
2022/11/21 19:22:38;;;;;;;38.23;18.13;;;;;;;0.13;97.78;99594.56;3631376;79;32347;-80
2022/11/21 19:27:39;;;;;;;45.17;20.70;;;;;;;0.14;97.82;99589.95;3620836;79;98438;-80
2022/11/21 19:32:40;;;;;;;75.63;36.07;;;;;;;0.05;98.12;99567.56;3635911;79;31689;-80
2022/11/21 19:37:40;;;;;;;76.82;35.48;;;;;;;0.22;98.39;99589.89;3630129;79;98517;-80
2022/11/21 19:42:41;;;;;;;64.70;32.13;;;;;;;0.24;98.54;99597.69;3623366;79;31630;-80
2022/11/21 19:47:55;;;;;;;56.83;26.23;;;;;;;0.23;98.63;99593.41;3627133;79;98302;-86
2022/11/21 19:52:54;;;;;;;64.00;28.15;;;;;;;0.22;98.64;99588.55;3639975;79;31977;-86
2022/11/21 19:57:58;;;;;;;57.67;26.70;;;;;;;0.21;98.56;99587.52;3593745;79;98148;-85
2022/11/21 20:03:03;;;;;;;58.37;27.77;;;;;;;0.17;98.55;99590.09;3582078;79;26380;-87
2022/11/21 20:08:11;;;;;;;52.20;24.82;;;;;;;0.15;98.47;99580.72;3561291;79;98586;-84
2022/11/21 20:13:21;;;;;;;59.17;27.20;;;;;;;0.09;98.43;99572.02;3620944;79;98337;-85
2022/11/21 20:18:25;;;;;;;63.73;26.70;;;;;;;0.07;98.44;99572.88;3627560;80;29441;-86
2022/11/21 20:23:30;;;;;;;58.17;26.40;;;;;;;0.10;98.45;99575.49;3596811;79;98325;-86
2022/11/21 20:28:35;;;;;;;61.17;27.50;;;;;;;0.10;98.37;99580.36;3611215;79;46926;-79
2022/11/21 20:33:40;;;;;;;62.23;26.42;;;;;;;0.10;98.37;99557.91;3611558;79;98319;-81
2022/11/21 20:38:41;;;;;;;55.07;25.13;;;;;;;0.11;98.43;99571.11;3594806;79;25883;-80
2022/11/21 20:43:41;;;;;;;63.40;26.25;;;;;;;0.11;98.26;99578.45;3595394;80;98428;-80
2022/11/21 20:48:42;;;;;;;68.03;30.23;;;;;;;0.13;98.28;99569.44;3605091;80;31579;-80
2022/11/21 20:53:43;;;;;;;66.33;29.02;;;;;;;0.11;98.26;99579.80;3595647;80;98537;-79
2022/11/21 20:58:45;;;;;;;71.20;29.97;;;;;;;0.14;98.24;99581.29;3595681;80;31333;-79
2022/11/21 21:03:46;;;;;;;69.67;30.30;;;;;;;0.15;98.23;99591.53;3581238;80;99161;-79
2022/11/21 21:08:47;;;;;;;64.77;29.90;;;;;;;-0.02;97.68;99591.64;3602686;80;31921;-79
2022/11/21 21:13:49;;;;;;;63.98;29.95;;;;;;;-0.07;98.25;99579.11;3588271;80;98833;-79
2022/11/21 21:18:55;;;;;;;63.43;29.60;;;;;;;-0.04;98.34;99581.14;3540211;82;31667;-80
2022/11/21 21:24:02;;;;;;;64.70;27.53;;;;;;;-0.10;98.06;99570.87;3538575;82;98494;-80
2022/11/21 21:29:04;;;;;;;70.17;28.60;;;;;;;-0.07;98.40;99562.66;3553497;81;29195;-80
2022/11/21 21:34:04;;;;;;;70.10;29.98;;;;;;;-0.11;98.03;99573.31;3558065;81;98789;-80
2022/11/21 21:39:05;;;;;;;68.57;29.63;;;;;;;-0.13;98.12;99567.45;3560594;82;32203;-80
2022/11/21 21:44:06;;;;;;;73.17;32.80;;;;;;;-0.13;98.23;99553.94;3566900;81;98433;-80
2022/11/21 21:49:07;;;;;;;73.90;32.60;;;;;;;-0.19;98.12;99539.02;3567985;81;31719;-80
2022/11/21 21:54:16;;;;;;;59.98;25.30;;;;;;;-0.19;98.36;99548.48;3566910;80;98612;-80
2022/11/21 21:59:18;;;;;;;69.03;30.30;;;;;;;-0.26;98.45;99544.16;3576639;81;25938;-80
2022/11/21 22:04:19;;;;;;;61.35;27.27;;;;;;;-0.21;98.65;99556.91;3565701;81;99042;-80
2022/11/21 22:09:20;;;;;;;66.93;29.03;;;;;;;-0.23;98.40;99544.84;3567690;80;31640;-80
2022/11/21 22:14:21;;;;;;;53.63;24.17;;;;;;;-0.26;98.43;99532.00;3579717;79;98881;-80
2022/11/21 22:19:22;;;;;;;65.73;28.53;;;;;;;-0.38;98.01;99533.81;3618598;79;32019;-80
2022/11/21 22:24:23;;;;;;;63.73;26.00;;;;;;;-0.46;98.64;99531.38;3632223;79;98488;-80
2022/11/21 22:29:25;;;;;;;52.87;23.77;;;;;;;-0.47;98.65;99515.72;3623318;79;31667;-81
2022/11/21 22:34:25;;;;;;;52.17;22.07;;;;;;;-0.49;98.81;99516.38;3569997;80;98469;-80
2022/11/21 22:39:26;;;;;;;50.13;22.57;;;;;;;-0.57;98.69;99515.30;3573243;80;30904;-80
2022/11/21 22:44:27;;;;;;;57.33;20.62;;;;;;;-0.60;98.82;99524.62;3563347;81;98523;-80
2022/11/21 22:49:28;;;;;;;43.42;19.25;;;;;;;-0.68;98.94;99526.25;3568411;81;30904;-80
2022/11/21 22:54:29;;;;;;;41.80;19.23;;;;;;;-0.69;98.85;99522.52;3569478;81;98499;-81
2022/11/21 22:59:30;;;;;;;42.60;19.03;;;;;;;-0.70;98.95;99525.79;3569721;81;34828;-80
2022/11/21 23:04:30;;;;;;;44.30;20.85;;;;;;;-0.78;98.83;99526.59;3555144;81;98610;-81
2022/11/21 23:09:31;;;;;;;48.17;23.97;;;;;;;-0.76;99.24;99535.73;3553765;82;34906;-81
2022/11/21 23:14:32;;;;;;;42.77;17.73;;;;;;;-0.72;99.16;99553.67;3555959;81;98691;-81
2022/11/21 23:19:33;;;;;;;36.83;16.40;;;;;;;-0.71;99.04;99568.75;3566014;82;35081;-80
2022/11/21 23:24:34;;;;;;;38.07;16.60;;;;;;;-0.70;98.88;99572.26;3550950;81;98479;-80
2022/11/21 23:29:35;;;;;;;45.33;21.80;;;;;;;-0.80;98.62;99584.22;3567660;81;35401;-80
2022/11/21 23:34:35;;;;;;;43.68;20.88;;;;;;;-0.75;99.26;99594.05;3559462;81;98631;-80
2022/11/21 23:39:36;;;;;;;45.97;21.77;;;;;;;-0.71;99.05;99576.08;3557577;81;32466;-80
2022/11/21 23:44:37;;;;;;;41.73;20.60;;;;;;;-0.68;99.05;99582.17;3575404;81;98784;-80
2022/11/21 23:49:38;;;;;;;43.07;20.50;;;;;;;-0.62;99.21;99609.28;3617850;81;33722;-80
2022/11/21 23:54:39;;;;;;;44.80;18.95;;;;;;;-0.57;99.17;99615.28;3597516;81;98821;-80
2022/11/21 23:59:39;;;;;;;40.27;18.07;;;;;;;-0.55;98.73;99626.55;3567948;81;32527;-80
